createdAt,value
2019-03-06T00:01:26.780Z,3.14
2019-03-06T00:03:57.343Z,3.19
2019-03-06T00:06:27.745Z,3.16
2019-03-06T00:08:59.716Z,3.16
2019-03-06T00:11:30.511Z,3.11
2019-03-06T00:14:02.190Z,3.08
2019-03-06T00:16:32.721Z,2.99
2019-03-06T00:19:03.127Z,3.03
2019-03-06T00:21:34.682Z,3.11
2019-03-06T00:24:05.143Z,3.17
2019-03-06T00:26:35.679Z,3.10
2019-03-06T00:29:06.310Z,3.06
2019-03-06T00:31:37.032Z,2.89
2019-03-06T00:34:07.734Z,2.98
2019-03-06T00:36:38.290Z,3.07
2019-03-06T00:39:08.793Z,2.89
2019-03-06T00:41:40.062Z,2.83
2019-03-06T00:44:10.581Z,2.93
2019-03-06T00:46:41.075Z,2.87
2019-03-06T00:49:14.385Z,2.80
2019-03-06T00:51:44.839Z,2.77
2019-03-06T00:54:15.410Z,2.59
2019-03-06T00:56:45.855Z,2.62
2019-03-06T00:59:16.324Z,2.48
2019-03-06T01:01:46.885Z,2.27
2019-03-06T01:04:17.373Z,2.33
2019-03-06T01:06:47.803Z,2.42
2019-03-06T01:09:18.240Z,2.32
2019-03-06T01:11:48.698Z,2.38
2019-03-06T01:14:19.162Z,2.36
2019-03-06T01:16:49.616Z,2.49
2019-03-06T01:22:31.119Z,2.47
2019-03-06T01:25:01.734Z,2.50
2019-03-06T01:27:32.201Z,2.38
2019-03-06T01:30:02.643Z,2.42
2019-03-06T01:32:33.224Z,2.47
2019-03-06T01:35:05.303Z,2.51
2019-03-06T01:37:37.264Z,2.58
2019-03-06T01:40:28.862Z,2.54
2019-03-06T01:43:09.910Z,2.56
2019-03-06T01:45:40.343Z,2.53
2019-03-06T01:48:16.762Z,2.50
2019-03-06T01:51:08.221Z,2.39
2019-03-06T01:53:40.267Z,2.43
2019-03-06T01:56:12.491Z,2.34
2019-03-06T01:58:44.171Z,2.30
2019-03-06T02:01:29.921Z,2.23
2019-03-06T02:04:01.995Z,2.22
2019-03-06T02:06:32.420Z,2.23
2019-03-06T02:09:03.190Z,2.33
2019-03-06T02:12:05.511Z,2.36
2019-03-06T02:14:37.817Z,2.33
2019-03-06T02:19:55.331Z,2.32
2019-03-06T02:22:27.410Z,2.25
2019-03-06T02:24:57.869Z,2.26
2019-03-06T02:27:30.023Z,2.23
2019-03-06T02:30:00.661Z,2.28
2019-03-06T02:32:32.719Z,2.30
2019-03-06T02:35:04.340Z,2.37
2019-03-06T02:37:36.348Z,2.38
2019-03-06T02:40:09.542Z,2.36
2019-03-06T02:42:39.995Z,2.37
2019-03-06T02:45:13.394Z,2.37
2019-03-06T02:47:43.919Z,2.39
2019-03-06T02:50:16.572Z,2.37
2019-03-06T02:52:47.089Z,2.42
2019-03-06T02:55:18.251Z,2.42
2019-03-06T02:57:59.413Z,2.40
2019-03-06T03:00:34.469Z,2.37
2019-03-06T03:03:23.299Z,2.38
2019-03-06T03:06:01.448Z,2.33
2019-03-06T03:08:32.153Z,2.19
2019-03-06T03:11:02.652Z,2.06
2019-03-06T03:13:33.075Z,1.94
2019-03-06T03:16:06.293Z,1.81
2019-03-06T03:18:36.693Z,1.78
2019-03-06T03:21:07.148Z,1.64
2019-03-06T03:23:37.565Z,1.75
2019-03-06T03:26:08.093Z,1.58
2019-03-06T03:28:41.208Z,1.55
2019-03-06T03:31:13.532Z,1.65
2019-03-06T03:33:43.988Z,1.61
2019-03-06T03:36:14.459Z,1.60
2019-03-06T03:38:44.906Z,1.63
2019-03-06T03:41:20.006Z,1.50
2019-03-06T03:43:50.541Z,1.62
2019-03-06T03:46:24.349Z,1.44
2019-03-06T03:48:59.284Z,1.45
2019-03-06T03:51:29.782Z,1.30
2019-03-06T03:54:00.399Z,1.49
2019-03-06T03:56:32.507Z,1.52
2019-03-06T03:59:03.034Z,1.51
2019-03-06T04:01:33.859Z,1.48
2019-03-06T04:04:06.680Z,1.49
2019-03-06T04:06:37.375Z,1.35
2019-03-06T04:09:13.077Z,1.46
2019-03-06T04:11:46.899Z,1.46
2019-03-06T04:14:20.070Z,1.34
2019-03-06T04:16:55.296Z,1.24
2019-03-06T04:20:02.486Z,1.33
2019-03-06T04:22:39.547Z,1.36
2019-03-06T04:25:28.046Z,1.41
2019-03-06T04:27:58.610Z,1.41
2019-03-06T04:30:32.176Z,1.79
2019-03-06T04:33:02.711Z,1.85
2019-03-06T04:35:34.312Z,1.70
2019-03-06T04:38:17.756Z,1.68
2019-03-06T04:40:52.403Z,1.57
2019-03-06T04:43:26.431Z,1.53
2019-03-06T04:46:01.456Z,1.57
2019-03-06T04:48:42.459Z,1.45
2019-03-06T04:51:17.829Z,1.60
2019-03-06T04:53:51.118Z,1.74
2019-03-06T04:56:21.327Z,1.72
2019-03-06T04:59:08.283Z,1.73
2019-03-06T05:01:50.902Z,1.68
2019-03-06T05:04:23.004Z,1.74
2019-03-06T05:10:17.408Z,1.76
2019-03-06T05:12:47.961Z,1.92
2019-03-06T05:15:20.163Z,1.99
2019-03-06T05:18:14.217Z,2.11
2019-03-06T05:20:45.392Z,2.16
2019-03-06T05:23:18.387Z,2.26
2019-03-06T05:25:50.068Z,2.24
2019-03-06T05:28:20.707Z,2.27
2019-03-06T05:30:55.637Z,2.31
2019-03-06T05:33:28.651Z,2.42
2019-03-06T05:36:04.748Z,2.50
2019-03-06T05:38:48.326Z,2.61
2019-03-06T05:41:20.614Z,2.71
2019-03-06T05:43:51.185Z,2.78
2019-03-06T05:46:24.891Z,2.87
2019-03-06T05:48:58.389Z,2.96
2019-03-06T05:51:30.610Z,3.08
2019-03-06T05:54:01.247Z,3.22
2019-03-06T05:56:35.048Z,3.33
2019-03-06T05:59:08.500Z,3.49
2019-03-06T06:01:39.143Z,3.68
2019-03-06T06:04:18.033Z,3.74
2019-03-06T06:06:48.692Z,3.94
2019-03-06T06:09:29.153Z,4.10
2019-03-06T06:11:59.720Z,4.23
2019-03-06T06:14:31.680Z,4.41
2019-03-06T06:17:04.372Z,4.59
2019-03-06T06:19:36.033Z,4.80
2019-03-06T06:22:08.135Z,4.90
2019-03-06T06:24:43.536Z,5.04
2019-03-06T06:27:15.849Z,5.06
2019-03-06T06:29:54.072Z,5.13
2019-03-06T06:32:30.527Z,5.15
2019-03-06T06:35:08.920Z,5.23
2019-03-06T06:37:39.724Z,5.35
2019-03-06T06:40:17.294Z,5.38
2019-03-06T06:42:47.736Z,5.45
2019-03-06T06:45:37.260Z,5.59
2019-03-06T06:48:12.902Z,5.60
2019-03-06T06:51:01.194Z,5.70
2019-03-06T06:53:36.337Z,5.76
2019-03-06T06:56:30.933Z,5.69
2019-03-06T06:59:09.454Z,5.66
2019-03-06T07:01:54.605Z,5.75
2019-03-06T07:04:55.404Z,5.83
2019-03-06T07:07:46.746Z,5.98
2019-03-06T07:10:35.449Z,6.00
2019-03-06T07:13:07.685Z,6.08
2019-03-06T07:15:46.354Z,6.28
2019-03-06T07:18:36.823Z,6.34
2019-03-06T07:21:16.461Z,6.35
2019-03-06T07:24:00.814Z,6.46
2019-03-06T07:26:52.383Z,6.49
2019-03-06T07:29:24.414Z,6.54
2019-03-06T07:31:56.480Z,6.60
2019-03-06T07:34:37.411Z,6.75
2019-03-06T07:37:37.025Z,6.69
2019-03-06T07:40:28.044Z,6.82
2019-03-06T07:43:00.227Z,6.85
2019-03-06T07:45:39.753Z,6.95
2019-03-06T07:48:20.171Z,6.93
2019-03-06T07:50:55.344Z,6.93
2019-03-06T07:54:16.505Z,7.06
2019-03-06T07:56:48.683Z,7.34
2019-03-06T07:59:25.208Z,7.44
2019-03-06T08:02:09.963Z,7.41
2019-03-06T08:04:43.000Z,7.41
2019-03-06T08:07:16.345Z,7.53
2019-03-06T08:10:01.217Z,7.50
2019-03-06T08:13:11.692Z,7.50
2019-03-06T08:15:48.240Z,7.66
2019-03-06T08:18:39.565Z,7.72
2019-03-06T08:21:31.047Z,7.76
2019-03-06T08:24:19.087Z,7.78
2019-03-06T08:27:19.933Z,7.75
2019-03-06T08:29:54.947Z,7.96
2019-03-06T08:32:34.053Z,7.78
2019-03-06T08:35:09.090Z,7.89
2019-03-06T08:37:48.753Z,8.11
2019-03-06T08:40:20.921Z,8.08
2019-03-06T08:43:40.816Z,8.08
2019-03-06T08:45:42.327Z,8.17
2019-03-06T08:48:33.477Z,8.01
2019-03-06T08:51:13.173Z,8.18
2019-03-06T08:54:05.205Z,8.21
2019-03-06T08:57:08.232Z,8.17
2019-03-06T09:00:07.413Z,8.28
2019-03-06T09:03:03.170Z,8.36
2019-03-06T09:06:00.436Z,8.58
2019-03-06T09:08:44.499Z,8.62
2019-03-06T09:11:22.686Z,8.66
2019-03-06T09:14:12.826Z,8.86
2019-03-06T09:17:00.996Z,8.73
2019-03-06T09:19:44.036Z,8.77
2019-03-06T09:22:27.972Z,8.82
2019-03-06T09:25:41.795Z,8.93
2019-03-06T09:28:33.852Z,9.03
2019-03-06T09:31:29.895Z,9.07
2019-03-06T09:34:22.388Z,9.18
2019-03-06T09:37:12.181Z,9.25
2019-03-06T09:39:58.923Z,9.08
2019-03-06T09:45:52.435Z,9.39
2019-03-06T09:48:43.800Z,9.43
2019-03-06T09:55:30.653Z,9.72
2019-03-06T09:58:22.796Z,9.80
2019-03-06T10:01:33.722Z,9.75
2019-03-06T10:04:36.960Z,9.73
2019-03-06T10:07:20.361Z,9.94
2019-03-06T10:13:19.714Z,10.00
2019-03-06T10:16:04.995Z,10.16
2019-03-06T10:18:41.701Z,10.15
2019-03-06T10:21:32.825Z,10.21
2019-03-06T10:24:10.178Z,10.28
2019-03-06T10:26:45.696Z,10.24
2019-03-06T10:39:17.225Z,10.27
2019-03-06T10:45:13.117Z,10.37
2019-03-06T10:51:40.039Z,10.49
2019-03-06T10:55:31.583Z,10.43
2019-03-06T10:57:36.348Z,10.45
2019-03-06T11:05:01.446Z,10.39
2019-03-06T11:07:26.821Z,10.30
2019-03-06T11:10:23.694Z,10.07
2019-03-06T11:13:22.077Z,9.86
2019-03-06T11:16:07.494Z,10.03
2019-03-06T11:24:53.373Z,10.02
2019-03-06T11:27:48.045Z,10.06
2019-03-06T11:30:44.243Z,10.03
2019-03-06T11:36:30.966Z,10.06
2019-03-06T11:39:24.739Z,9.98
2019-03-06T11:42:07.046Z,10.09
2019-03-06T11:44:46.792Z,10.06
2019-03-06T11:50:29.392Z,10.10
2019-03-06T11:52:59.894Z,10.05
2019-03-06T11:55:30.730Z,10.09
2019-03-06T11:58:01.265Z,10.13
2019-03-06T12:03:39.644Z,10.15
2019-03-06T12:06:22.245Z,10.31
2019-03-06T12:09:02.068Z,10.36
2019-03-06T12:11:34.465Z,10.22
2019-03-06T12:14:22.311Z,10.20
2019-03-06T12:17:12.846Z,10.17
2019-03-06T13:27:16.171Z,10.10
2019-03-06T13:33:11.376Z,10.08
2019-03-06T13:50:06.352Z,10.09
2019-03-06T13:57:20.993Z,10.03
2019-03-06T14:05:11.940Z,9.78
2019-03-06T14:08:31.522Z,9.57
2019-03-06T14:14:39.795Z,9.44
2019-03-06T14:20:52.363Z,9.36
2019-03-06T14:26:39.471Z,9.35
2019-03-06T14:29:21.963Z,9.24
2019-03-06T14:32:01.397Z,9.18
2019-03-06T14:34:54.890Z,9.25
2019-03-06T14:37:44.563Z,9.27
2019-03-06T14:44:11.822Z,9.29
2019-03-06T14:47:04.949Z,9.24
2019-03-06T15:13:17.840Z,8.69
2019-03-06T15:15:59.323Z,8.59
2019-03-06T15:24:47.180Z,8.60
2019-03-06T15:27:28.668Z,8.59
2019-03-06T15:33:24.824Z,8.51
2019-03-06T15:36:38.658Z,8.46
2019-03-06T15:39:55.341Z,8.32
2019-03-06T15:42:33.483Z,8.44
2019-03-06T15:48:24.476Z,8.23
2019-03-06T15:51:02.949Z,8.22
2019-03-06T15:53:57.336Z,8.26
2019-03-06T16:48:16.918Z,8.18
2019-03-06T16:51:28.222Z,8.14
2019-03-06T20:31:02.564Z,5.25
2019-03-06T20:33:57.777Z,5.17
2019-03-06T20:46:59.825Z,4.95
2019-03-06T20:50:38.457Z,4.82
2019-03-06T20:52:37.506Z,4.76
2019-03-06T20:55:26.523Z,4.64
2019-03-06T21:04:49.208Z,4.37
2019-03-06T21:17:57.071Z,4.06
2019-03-06T21:30:21.393Z,3.81
2019-03-06T21:39:06.493Z,3.77
2019-03-06T21:44:50.227Z,3.83
2019-03-06T21:48:17.316Z,3.92
2019-03-06T21:50:38.890Z,4.03
2019-03-06T21:53:11.719Z,4.02
2019-03-06T21:55:53.174Z,4.02
2019-03-06T21:58:37.491Z,4.10
2019-03-06T22:07:41.013Z,3.87
2019-03-06T22:16:41.475Z,3.56
2019-03-06T22:22:21.128Z,3.50
2019-03-06T22:28:04.697Z,3.48
2019-03-06T22:30:40.807Z,3.41
2019-03-06T22:33:25.121Z,3.35
2019-03-06T22:38:54.482Z,3.34
2019-03-06T22:44:46.192Z,3.23
2019-03-06T22:47:39.410Z,3.25
2019-03-06T22:50:06.090Z,3.24
2019-03-06T22:52:46.004Z,3.15
2019-03-06T22:55:25.570Z,3.14
2019-03-06T23:01:17.696Z,3.15
2019-03-06T23:03:51.333Z,2.96
2019-03-06T23:06:30.435Z,2.89
2019-03-06T23:15:12.012Z,2.86
2019-03-06T23:17:45.763Z,2.80
2019-03-06T23:20:18.427Z,2.78
2019-03-06T23:23:01.057Z,2.79
2019-03-06T23:25:38.810Z,2.84
2019-03-06T23:28:31.435Z,2.95
2019-03-06T23:31:07.338Z,3.00
2019-03-06T23:33:55.090Z,3.10
2019-03-06T23:36:36.984Z,3.12
2019-03-06T23:42:18.110Z,3.04
2019-03-06T23:44:58.191Z,2.97
2019-03-06T23:47:38.818Z,2.98
2019-03-06T23:50:19.056Z,2.98
2019-03-06T23:53:18.750Z,2.93
2019-03-06T23:55:51.767Z,2.93
2019-03-06T23:58:27.814Z,2.91
